Time;durP1;ratioP1;P1;durP2;ratioP2;P2;SDS_P1;SDS_P2;PMS_P1;PMS_P2;Temp;Humidity;BMP_temperature;BMP_pressure;BME280_temperature;BME280_humidity;BME280_pressure;Samples;Min_cycle;Max_cycle;Signal;HPM_P1;HPM_P2
2022/06/27 00:02:37;;;;;;;6.28;4.97;;;;;;;;;;10281111;28;20091;-63
2022/06/27 00:07:35;;;;;;;6.43;5.82;;;;;;;;;;10285133;28;20083;-63
2022/06/27 00:12:34;;;;;;;6.63;5.85;;;;;;;;;;10281058;28;20076;-63
2022/06/27 00:17:34;;;;;;;8.10;6.07;;;;;;;;;;10281358;28;20045;-63
2022/06/27 00:22:33;;;;;;;8.93;5.68;;;;;;;;;;10284132;28;20529;-64
2022/06/27 00:27:32;;;;;;;8.68;6.10;;;;;;;;;;10281866;28;20080;-63
2022/06/27 00:32:30;;;;;;;10.63;6.32;;;;;;;;;;10283974;28;20060;-63
2022/06/27 00:37:30;;;;;;;7.75;5.95;;;;;;;;;;10283085;28;20049;-64
2022/06/27 00:42:28;;;;;;;8.05;5.50;;;;;;;;;;10312827;28;20075;-64
2022/06/27 00:47:27;;;;;;;9.18;6.47;;;;;;;;;;10306798;28;20461;-63
2022/06/27 00:52:26;;;;;;;7.07;5.40;;;;;;;;;;10303330;28;20459;-63
2022/06/27 00:57:26;;;;;;;5.97;5.25;;;;;;;;;;10284211;28;20072;-63
2022/06/27 01:02:24;;;;;;;8.82;5.68;;;;;;;;;;10281743;28;20081;-63
2022/06/27 01:07:23;;;;;;;6.07;5.53;;;;;;;;;;10277142;28;20072;-62
2022/06/27 01:12:21;;;;;;;7.45;5.45;;;;;;;;;;10286793;28;20052;-63
2022/06/27 01:17:22;;;;;;;5.95;5.38;;;;;;;;;;10300880;28;20053;-64
2022/06/27 01:22:22;;;;;;;5.85;5.35;;;;;;;;;;10304361;28;20064;-64
2022/06/27 01:27:20;;;;;;;7.22;6.03;;;;;;;;;;10279615;28;20075;-63
2022/06/27 01:32:19;;;;;;;7.22;5.82;;;;;;;;;;10277818;28;20056;-63
2022/06/27 01:37:21;;;;;;;9.38;6.03;;;;;;;;;;10278257;28;20057;-64
2022/06/27 01:42:21;;;;;;;7.45;5.40;;;;;;;;;;10284387;28;20114;-63
2022/06/27 01:47:20;;;;;;;7.57;6.13;;;;;;;;;;10299765;28;20502;-63
2022/06/27 01:52:23;;;;;;;9.75;6.53;;;;;;;;;;10307640;28;20053;-64
2022/06/27 01:57:24;;;;;;;9.98;8.15;;;;;;;;;;10276203;28;20041;-67
2022/06/27 02:02:22;;;;;;;11.63;7.60;;;;;;;;;;10279905;28;20080;-67
2022/06/27 02:07:20;;;;;;;7.55;6.50;;;;;;;;;;10295193;28;20064;-67
2022/06/27 02:12:22;;;;;;;6.82;6.22;;;;;;;;;;10276971;28;20051;-67
2022/06/27 02:17:22;;;;;;;9.43;6.15;;;;;;;;;;10300270;28;20048;-67
2022/06/27 02:22:21;;;;;;;7.18;6.05;;;;;;;;;;10277093;28;20147;-67
2022/06/27 02:27:21;;;;;;;6.63;5.32;;;;;;;;;;10277351;28;20584;-67
2022/06/27 02:32:20;;;;;;;7.45;6.03;;;;;;;;;;10277237;28;20509;-67
2022/06/27 02:37:19;;;;;;;6.40;5.63;;;;;;;;;;10277947;28;20501;-67
2022/06/27 02:42:18;;;;;;;7.65;6.20;;;;;;;;;;10275181;28;20049;-67
2022/06/27 02:47:20;;;;;;;7.90;6.82;;;;;;;;;;10279498;28;20049;-67
2022/06/27 02:52:20;;;;;;;11.23;8.05;;;;;;;;;;10276705;28;20064;-67
2022/06/27 02:57:33;;;;;;;13.65;7.30;;;;;;;;;;10298127;28;20059;-67
2022/06/27 03:02:37;;;;;;;8.05;7.32;;;;;;;;;;10275296;28;20095;-68
2022/06/27 03:07:45;;;;;;;10.48;8.90;;;;;;;;;;10284175;28;20052;-66
2022/06/27 03:12:44;;;;;;;11.82;9.73;;;;;;;;;;10275568;28;20076;-67
2022/06/27 03:17:44;;;;;;;10.27;8.65;;;;;;;;;;10278460;28;20089;-68
2022/06/27 03:23:16;;;;;;;10.27;9.18;;;;;;;;;;10299339;28;20639;-68
2022/06/27 03:28:18;;;;;;;10.50;7.53;;;;;;;;;;10283423;28;20422;-67
2022/06/27 03:33:20;;;;;;;8.38;7.40;;;;;;;;;;10282869;28;20084;-68
2022/06/27 03:38:30;;;;;;;8.65;7.70;;;;;;;;;;10285356;28;20073;-67
2022/06/27 03:43:29;;;;;;;9.10;8.20;;;;;;;;;;10282166;28;20084;-66
2022/06/27 03:54:14;;;;;;;12.07;8.77;;;;;;;;;;10290265;28;20068;-66
2022/06/27 03:59:13;;;;;;;10.13;9.13;;;;;;;;;;10284526;28;20589;-66
2022/06/27 04:04:13;;;;;;;12.70;9.07;;;;;;;;;;10280253;28;20060;-66
2022/06/27 04:09:13;;;;;;;9.13;8.23;;;;;;;;;;10279991;28;20417;-66
2022/06/27 04:14:11;;;;;;;9.95;8.18;;;;;;;;;;10278664;28;20087;-66
2022/06/27 04:19:14;;;;;;;9.93;8.93;;;;;;;;;;10282724;28;20091;-67
2022/06/27 04:24:32;;;;;;;10.45;9.55;;;;;;;;;;10285397;28;20081;-67
2022/06/27 04:29:30;;;;;;;9.43;8.48;;;;;;;;;;10282193;28;20510;-66
2022/06/27 04:34:30;;;;;;;14.82;11.05;;;;;;;;;;10283397;28;20656;-66
2022/06/27 04:39:29;;;;;;;12.18;10.88;;;;;;;;;;10280844;28;20072;-66
2022/06/27 04:44:33;;;;;;;10.50;8.73;;;;;;;;;;10278153;28;20068;-66
2022/06/27 04:49:32;;;;;;;8.35;7.43;;;;;;;;;;10280262;28;20053;-66
2022/06/27 04:54:31;;;;;;;12.38;7.97;;;;;;;;;;10279242;28;20167;-65
2022/06/27 04:59:29;;;;;;;13.93;7.93;;;;;;;;;;10281665;28;20041;-65
2022/06/27 05:04:40;;;;;;;9.70;8.05;;;;;;;;;;10290647;28;20048;-66
2022/06/27 05:09:38;;;;;;;9.68;8.13;;;;;;;;;;10277081;28;20506;-65
2022/06/27 05:14:37;;;;;;;13.65;9.20;;;;;;;;;;10282702;28;20051;-66
2022/06/27 05:19:37;;;;;;;9.15;8.15;;;;;;;;;;10279237;28;20064;-66
2022/06/27 05:24:37;;;;;;;12.50;7.97;;;;;;;;;;10277598;28;20171;-67
2022/06/27 05:29:35;;;;;;;9.45;7.22;;;;;;;;;;10282141;28;20045;-66
2022/06/27 05:34:35;;;;;;;8.70;7.78;;;;;;;;;;10291991;28;20048;-65
2022/06/27 05:39:34;;;;;;;9.77;7.68;;;;;;;;;;10280984;28;20102;-66
2022/06/27 05:44:34;;;;;;;14.38;7.03;;;;;;;;;;10278744;28;20114;-65
2022/06/27 05:49:34;;;;;;;11.68;7.20;;;;;;;;;;10276643;28;20064;-66
2022/06/27 05:54:34;;;;;;;15.35;7.72;;;;;;;;;;10273719;28;20091;-67
2022/06/27 05:59:35;;;;;;;9.13;7.72;;;;;;;;;;10282070;28;20108;-66
2022/06/27 06:04:34;;;;;;;12.25;6.68;;;;;;;;;;10271962;28;20072;-66
2022/06/27 06:09:34;;;;;;;7.32;5.93;;;;;;;;;;10274741;28;20087;-66
2022/06/27 06:14:33;;;;;;;6.68;6.07;;;;;;;;;;10285615;28;20493;-66
2022/06/27 06:19:34;;;;;;;9.43;6.38;;;;;;;;;;10286265;28;20049;-65
2022/06/27 06:24:34;;;;;;;6.50;5.90;;;;;;;;;;10282503;28;20465;-65
2022/06/27 06:29:39;;;;;;;7.70;6.78;;;;;;;;;;10285119;28;20421;-66
2022/06/27 06:34:41;;;;;;;8.95;6.13;;;;;;;;;;10274018;28;20072;-66
2022/06/27 06:39:39;;;;;;;10.43;5.88;;;;;;;;;;10270442;28;20509;-66
2022/06/27 06:44:40;;;;;;;6.68;5.00;;;;;;;;;;10267363;28;20076;-67
2022/06/27 06:49:57;;;;;;;7.18;4.90;;;;;;;;;;10278131;28;20076;-67
2022/06/27 06:54:55;;;;;;;6.45;4.38;;;;;;;;;;10275415;28;20092;-66
2022/06/27 06:59:54;;;;;;;7.03;6.13;;;;;;;;;;10276216;28;20439;-66
2022/06/27 07:04:52;;;;;;;4.93;4.35;;;;;;;;;;10283958;28;20111;-67
2022/06/27 07:09:53;;;;;;;7.15;4.65;;;;;;;;;;10276860;28;20087;-67
2022/06/27 07:14:51;;;;;;;5.50;4.30;;;;;;;;;;10276960;28;20081;-67
2022/06/27 07:19:50;;;;;;;9.77;3.92;;;;;;;;;;10279915;28;20072;-67
2022/06/27 07:24:48;;;;;;;6.82;4.75;;;;;;;;;;10275064;28;20115;-67
2022/06/27 07:29:49;;;;;;;8.10;4.47;;;;;;;;;;10279654;28;20065;-67
2022/06/27 07:34:47;;;;;;;7.78;3.67;;;;;;;;;;10279288;28;20072;-67
2022/06/27 07:39:46;;;;;;;8.45;5.25;;;;;;;;;;10276463;28;20077;-66
2022/06/27 07:44:44;;;;;;;6.72;4.75;;;;;;;;;;10276209;28;20081;-67
2022/06/27 07:49:44;;;;;;;7.85;3.83;;;;;;;;;;10275415;28;20048;-67
2022/06/27 07:54:43;;;;;;;3.90;3.50;;;;;;;;;;10273103;28;20053;-67
2022/06/27 07:59:42;;;;;;;4.45;3.33;;;;;;;;;;10314371;28;20481;-67
2022/06/27 08:04:41;;;;;;;5.97;3.75;;;;;;;;;;10274932;28;20286;-67
2022/06/27 08:09:42;;;;;;;4.18;3.63;;;;;;;;;;10281463;28;20121;-67
2022/06/27 08:14:41;;;;;;;6.65;4.38;;;;;;;;;;10281867;28;20048;-67
2022/06/27 08:19:40;;;;;;;9.80;4.70;;;;;;;;;;10281529;28;20144;-66
2022/06/27 08:24:39;;;;;;;4.20;3.80;;;;;;;;;;10281619;28;20076;-67
2022/06/27 08:29:41;;;;;;;8.80;3.65;;;;;;;;;;10284767;28;20045;-67
2022/06/27 08:34:39;;;;;;;4.43;3.17;;;;;;;;;;10284805;28;20052;-67
2022/06/27 08:39:37;;;;;;;3.78;3.08;;;;;;;;;;10282264;28;20076;-67
2022/06/27 08:44:37;;;;;;;5.10;3.53;;;;;;;;;;10281565;28;20088;-66
2022/06/27 08:49:37;;;;;;;3.97;3.58;;;;;;;;;;10283955;28;20433;-66
2022/06/27 08:54:37;;;;;;;4.72;3.47;;;;;;;;;;10281440;28;20072;-66
2022/06/27 08:59:35;;;;;;;3.50;3.20;;;;;;;;;;10281062;28;20543;-67
2022/06/27 09:04:48;;;;;;;8.25;2.90;;;;;;;;;;10281409;28;20099;-67
2022/06/27 09:09:48;;;;;;;7.97;3.40;;;;;;;;;;10306968;28;20462;-68
2022/06/27 09:14:46;;;;;;;12.30;3.15;;;;;;;;;;10318580;28;20052;-67
2022/06/27 09:19:48;;;;;;;3.08;2.67;;;;;;;;;;10293376;28;20076;-67
2022/06/27 09:25:05;;;;;;;2.67;2.33;;;;;;;;;;10281256;28;20080;-68
2022/06/27 09:30:22;;;;;;;9.43;3.22;;;;;;;;;;10311653;28;20052;-68
2022/06/27 09:35:24;;;;;;;8.68;3.20;;;;;;;;;;10317984;28;20465;-67
2022/06/27 09:40:24;;;;;;;6.45;2.58;;;;;;;;;;10284824;28;20087;-68
2022/06/27 09:45:25;;;;;;;6.53;3.22;;;;;;;;;;10278580;28;20465;-68
2022/06/27 09:50:24;;;;;;;4.22;3.28;;;;;;;;;;10278140;28;20364;-67
2022/06/27 09:55:23;;;;;;;5.57;3.20;;;;;;;;;;10280979;28;20087;-67
2022/06/27 10:00:22;;;;;;;4.00;2.90;;;;;;;;;;10278828;28;20513;-66
2022/06/27 10:05:22;;;;;;;9.65;3.22;;;;;;;;;;10278035;28;20486;-67
2022/06/27 10:10:20;;;;;;;6.93;3.22;;;;;;;;;;10277892;28;20048;-68
2022/06/27 10:15:23;;;;;;;9.98;4.18;;;;;;;;;;10277503;28;20041;-65
2022/06/27 10:20:28;;;;;;;4.55;3.55;;;;;;;;;;10283645;28;20084;-66
2022/06/27 10:25:36;;;;;;;7.00;4.07;;;;;;;;;;10277627;28;20124;-66
2022/06/27 10:30:38;;;;;;;4.50;4.00;;;;;;;;;;10279824;28;20471;-67
2022/06/27 10:35:57;;;;;;;13.25;3.17;;;;;;;;;;10275729;28;20096;-67
2022/06/27 10:40:57;;;;;;;7.40;3.65;;;;;;;;;;10273828;28;20084;-66
2022/06/27 10:45:55;;;;;;;3.65;2.80;;;;;;;;;;10274165;28;20080;-67
2022/06/27 10:50:56;;;;;;;11.02;3.55;;;;;;;;;;10275436;28;20041;-66
2022/06/27 10:55:55;;;;;;;5.55;3.38;;;;;;;;;;10277365;28;20088;-67
2022/06/27 11:01:12;;;;;;;6.60;4.03;;;;;;;;;;10275080;28;20045;-66
2022/06/27 11:06:13;;;;;;;10.35;3.05;;;;;;;;;;10274980;28;20533;-65
2022/06/27 11:11:15;;;;;;;6.32;2.67;;;;;;;;;;10274394;28;20624;-66
2022/06/27 11:16:15;;;;;;;3.10;2.80;;;;;;;;;;10279009;28;20052;-66
2022/06/27 11:21:16;;;;;;;5.93;3.15;;;;;;;;;;10273765;28;20116;-65
2022/06/27 11:26:16;;;;;;;8.80;2.95;;;;;;;;;;10279248;28;20080;-67
2022/06/27 11:36:37;;;;;;;8.90;3.03;;;;;;;;;;10275565;28;20077;-67
2022/06/27 11:41:37;;;;;;;3.63;2.00;;;;;;;;;;10284582;28;20378;-66
2022/06/27 11:46:37;;;;;;;5.28;2.30;;;;;;;;;;10283351;28;20079;-68
2022/06/27 11:51:38;;;;;;;6.25;2.08;;;;;;;;;;10291744;28;20076;-66
2022/06/27 11:56:38;;;;;;;3.97;2.38;;;;;;;;;;10291413;28;20048;-67
2022/06/27 12:01:49;;;;;;;3.22;2.50;;;;;;;;;;10290059;28;20087;-67
2022/06/27 12:06:53;;;;;;;3.30;2.50;;;;;;;;;;10291079;28;20488;-67
2022/06/27 12:11:53;;;;;;;9.02;3.20;;;;;;;;;;10282879;28;20083;-67
2022/06/27 12:16:53;;;;;;;6.47;2.60;;;;;;;;;;10282413;28;20087;-66
2022/06/27 12:21:57;;;;;;;5.32;3.20;;;;;;;;;;10284899;28;20544;-67
2022/06/27 12:26:56;;;;;;;8.18;2.22;;;;;;;;;;10281747;28;20084;-66
2022/06/27 12:31:54;;;;;;;3.35;2.03;;;;;;;;;;10280502;28;20060;-66
2022/06/27 12:36:53;;;;;;;3.30;2.50;;;;;;;;;;10280241;28;20057;-67
2022/06/27 12:41:53;;;;;;;2.88;2.42;;;;;;;;;;10279991;28;20048;-67
2022/06/27 12:46:51;;;;;;;3.25;2.60;;;;;;;;;;10282685;28;20501;-68
2022/06/27 12:51:54;;;;;;;4.47;2.30;;;;;;;;;;10279760;28;20068;-67
2022/06/27 12:57:01;;;;;;;3.20;2.88;;;;;;;;;;10278601;28;20041;-67
2022/06/27 13:02:00;;;;;;;3.67;2.17;;;;;;;;;;10279439;28;20048;-67
2022/06/27 13:06:58;;;;;;;5.75;1.98;;;;;;;;;;10280505;28;20510;-67
2022/06/27 13:11:57;;;;;;;6.13;2.47;;;;;;;;;;10281887;28;20533;-66
2022/06/27 13:16:57;;;;;;;7.53;2.80;;;;;;;;;;10278374;28;20526;-65
2022/06/27 13:21:56;;;;;;;9.40;3.50;;;;;;;;;;10278391;28;20111;-66
2022/06/27 13:26:55;;;;;;;8.68;5.55;;;;;;;;;;10280886;28;20068;-65
2022/06/27 13:31:54;;;;;;;4.05;3.58;;;;;;;;;;10275673;28;20494;-65
2022/06/27 13:36:54;;;;;;;2.60;2.40;;;;;;;;;;10278089;28;20045;-66
2022/06/27 13:41:52;;;;;;;4.35;2.08;;;;;;;;;;10277888;28;20482;-66
2022/06/27 13:46:51;;;;;;;3.80;2.33;;;;;;;;;;10277900;28;20077;-66
2022/06/27 13:51:49;;;;;;;5.90;2.78;;;;;;;;;;10316174;28;20076;-64
2022/06/27 13:56:49;;;;;;;6.93;2.55;;;;;;;;;;10312191;28;20072;-66
2022/06/27 14:01:47;;;;;;;5.55;1.90;;;;;;;;;;10278610;28;20041;-65
2022/06/27 14:12:03;;;;;;;7.75;2.55;;;;;;;;;;10277749;28;20545;-66
2022/06/27 14:17:01;;;;;;;3.35;2.83;;;;;;;;;;10276378;28;20100;-66
2022/06/27 14:22:01;;;;;;;4.20;3.22;;;;;;;;;;10276037;28;20084;-66
2022/06/27 14:26:59;;;;;;;7.57;3.20;;;;;;;;;;10280124;28;20094;-67
2022/06/27 14:31:59;;;;;;;5.38;3.13;;;;;;;;;;10278883;28;20072;-66
2022/06/27 14:36:57;;;;;;;6.03;2.78;;;;;;;;;;10277113;28;20076;-66
2022/06/27 14:41:56;;;;;;;5.93;4.00;;;;;;;;;;10277150;28;20060;-66
2022/06/27 14:46:54;;;;;;;5.28;3.15;;;;;;;;;;10279212;28;20084;-67
2022/06/27 14:51:54;;;;;;;7.47;4.63;;;;;;;;;;10275752;28;20052;-66
2022/06/27 14:56:53;;;;;;;8.73;5.72;;;;;;;;;;10275538;28;20323;-66
2022/06/27 15:01:51;;;;;;;6.18;2.83;;;;;;;;;;10276357;28;20338;-66
2022/06/27 15:06:49;;;;;;;3.40;2.10;;;;;;;;;;10273268;28;20052;-68
2022/06/27 15:11:49;;;;;;;5.90;4.88;;;;;;;;;;10276369;28;20057;-66
2022/06/27 15:16:50;;;;;;;5.38;2.47;;;;;;;;;;10276738;28;20045;-67
2022/06/27 15:21:49;;;;;;;6.18;2.90;;;;;;;;;;10280146;28;20076;-66
2022/06/27 15:27:05;;;;;;;8.15;3.38;;;;;;;;;;10284509;28;20076;-67
2022/06/27 15:32:23;;;;;;;4.15;2.88;;;;;;;;;;10309946;28;20537;-66
2022/06/27 15:37:21;;;;;;;4.20;3.33;;;;;;;;;;10309207;28;20076;-67
2022/06/27 15:42:21;;;;;;;10.32;3.33;;;;;;;;;;10286157;28;20076;-67
2022/06/27 15:47:19;;;;;;;9.82;3.35;;;;;;;;;;10284342;28;20550;-67
2022/06/27 15:52:18;;;;;;;3.97;3.10;;;;;;;;;;10283536;28;20060;-67
2022/06/27 15:57:16;;;;;;;6.60;4.30;;;;;;;;;;10285816;28;20079;-67
2022/06/27 16:02:16;;;;;;;8.25;7.45;;;;;;;;;;10284234;28;20076;-67
2022/06/27 16:07:14;;;;;;;12.32;6.65;;;;;;;;;;10287191;28;20110;-67
2022/06/27 16:12:15;;;;;;;7.95;4.80;;;;;;;;;;10280495;28;20049;-67
2022/06/27 16:17:13;;;;;;;3.75;2.58;;;;;;;;;;10281698;28;20090;-67
2022/06/27 16:22:13;;;;;;;5.22;2.88;;;;;;;;;;10281041;28;20057;-67
2022/06/27 16:27:18;;;;;;;11.90;4.88;;;;;;;;;;10280872;28;20084;-67
2022/06/27 16:32:16;;;;;;;8.98;3.15;;;;;;;;;;10282122;28;20064;-66
2022/06/27 16:37:16;;;;;;;19.75;2.95;;;;;;;;;;10288845;28;20082;-63
2022/06/27 16:47:31;;;;;;;5.47;3.58;;;;;;;;;;10278727;28;20077;-63
2022/06/27 16:52:30;;;;;;;14.30;4.93;;;;;;;;;;10282259;28;20508;-63
2022/06/27 16:57:29;;;;;;;7.93;3.28;;;;;;;;;;10282608;28;20060;-63
2022/06/27 17:02:29;;;;;;;14.05;4.82;;;;;;;;;;10279795;28;20435;-64
2022/06/27 17:07:28;;;;;;;3.92;2.97;;;;;;;;;;10291825;28;20083;-65
2022/06/27 17:12:28;;;;;;;6.95;3.15;;;;;;;;;;10318183;28;20417;-63
2022/06/27 17:17:26;;;;;;;3.22;2.58;;;;;;;;;;10308731;28;20049;-63
2022/06/27 17:22:26;;;;;;;7.10;3.22;;;;;;;;;;10281544;28;20544;-64
2022/06/27 17:27:24;;;;;;;12.75;2.88;;;;;;;;;;10286937;28;20135;-64
2022/06/27 17:32:24;;;;;;;5.40;2.80;;;;;;;;;;10273973;28;20084;-63
2022/06/27 17:37:22;;;;;;;4.43;2.97;;;;;;;;;;10279423;28;20454;-64
2022/06/27 17:42:21;;;;;;;9.43;3.67;;;;;;;;;;10278643;28;20500;-63
2022/06/27 17:47:20;;;;;;;5.20;3.78;;;;;;;;;;10279052;28;20075;-64
2022/06/27 17:52:20;;;;;;;3.22;2.85;;;;;;;;;;10283038;28;20072;-64
2022/06/27 17:57:19;;;;;;;8.00;2.83;;;;;;;;;;10278791;28;20072;-64
2022/06/27 18:02:17;;;;;;;10.30;4.10;;;;;;;;;;10287360;28;20073;-63
2022/06/27 18:07:16;;;;;;;8.00;5.07;;;;;;;;;;10278223;28;20080;-63
2022/06/27 18:12:15;;;;;;;5.72;3.67;;;;;;;;;;10277851;28;20067;-64
2022/06/27 18:17:14;;;;;;;9.90;5.15;;;;;;;;;;10280427;28;20544;-63
2022/06/27 18:22:12;;;;;;;7.85;6.38;;;;;;;;;;10276382;28;20087;-64
2022/06/27 18:27:11;;;;;;;6.65;3.42;;;;;;;;;;10280192;28;20069;-64
2022/06/27 18:32:11;;;;;;;5.30;3.40;;;;;;;;;;10280857;28;20064;-64
2022/06/27 18:37:09;;;;;;;6.63;3.30;;;;;;;;;;10299839;28;20073;-64
2022/06/27 18:42:08;;;;;;;5.43;3.58;;;;;;;;;;10275845;28;20068;-64
2022/06/27 18:47:06;;;;;;;7.68;3.05;;;;;;;;;;10280979;28;20083;-64
2022/06/27 18:52:06;;;;;;;6.55;3.47;;;;;;;;;;10281160;28;20322;-63
2022/06/27 18:57:06;;;;;;;6.35;3.35;;;;;;;;;;10279575;28;20489;-64
2022/06/27 19:02:04;;;;;;;5.30;4.72;;;;;;;;;;10283229;28;20072;-64
2022/06/27 19:07:03;;;;;;;4.97;2.50;;;;;;;;;;10278226;28;20083;-64
2022/06/27 19:12:03;;;;;;;5.63;3.25;;;;;;;;;;10277667;28;20060;-63
2022/06/27 19:17:02;;;;;;;4.15;2.67;;;;;;;;;;10278660;28;20509;-62
2022/06/27 19:22:03;;;;;;;10.90;2.72;;;;;;;;;;10279371;28;20088;-62
2022/06/27 19:27:03;;;;;;;7.50;2.55;;;;;;;;;;10273324;28;20068;-63
2022/06/27 19:32:02;;;;;;;5.00;2.50;;;;;;;;;;10272447;28;20080;-63
2022/06/27 19:37:01;;;;;;;4.30;2.47;;;;;;;;;;10274324;28;20065;-63
2022/06/27 19:41:59;;;;;;;3.97;2.55;;;;;;;;;;10273922;28;20123;-61
2022/06/27 19:46:59;;;;;;;7.70;3.17;;;;;;;;;;10273770;28;20072;-64
2022/06/27 19:51:58;;;;;;;6.72;2.67;;;;;;;;;;10266521;28;20751;-64
2022/06/27 19:56:57;;;;;;;5.18;3.25;;;;;;;;;;10278170;28;20064;-63
2022/06/27 20:01:55;;;;;;;8.00;3.90;;;;;;;;;;10277239;28;20079;-64
2022/06/27 20:07:26;;;;;;;12.68;3.15;;;;;;;;;;10287768;28;20079;-63
2022/06/27 20:12:14;;;;;;;11.35;3.53;;;;;;;;;;10284200;28;20064;-63
2022/06/27 20:17:12;;;;;;;5.80;3.92;;;;;;;;;;10286686;28;20090;-63
2022/06/27 20:22:13;;;;;;;4.95;3.50;;;;;;;;;;10277514;28;20467;-63
2022/06/27 20:27:13;;;;;;;11.13;3.42;;;;;;;;;;10284886;28;20072;-63
2022/06/27 20:32:11;;;;;;;5.35;3.20;;;;;;;;;;10295068;28;20061;-63
2022/06/27 20:37:14;;;;;;;8.27;3.55;;;;;;;;;;10283949;28;20076;-63
2022/06/27 20:42:12;;;;;;;7.90;3.55;;;;;;;;;;10282104;28;20064;-63
2022/06/27 20:47:10;;;;;;;8.05;3.97;;;;;;;;;;10281762;28;20151;-64
2022/06/27 20:52:10;;;;;;;8.88;4.00;;;;;;;;;;10286572;28;20076;-63
2022/06/27 20:57:10;;;;;;;5.47;3.58;;;;;;;;;;10284313;28;20113;-64
2022/06/27 21:02:09;;;;;;;5.13;3.65;;;;;;;;;;10281622;28;20080;-63
2022/06/27 21:07:07;;;;;;;10.48;4.07;;;;;;;;;;10282753;28;20072;-63
2022/06/27 21:12:08;;;;;;;7.03;3.60;;;;;;;;;;10280612;28;20079;-63
2022/06/27 21:17:08;;;;;;;9.65;3.88;;;;;;;;;;10278104;28;20060;-62
2022/06/27 21:22:07;;;;;;;5.25;4.07;;;;;;;;;;10279171;28;20045;-63
2022/06/27 21:27:07;;;;;;;8.00;3.25;;;;;;;;;;10280217;28;20080;-63
2022/06/27 21:32:08;;;;;;;6.05;3.38;;;;;;;;;;10279321;28;20411;-62
2022/06/27 21:37:07;;;;;;;8.70;3.50;;;;;;;;;;10286455;28;20470;-63
2022/06/27 21:42:06;;;;;;;9.23;3.30;;;;;;;;;;10282579;28;20178;-64
2022/06/27 21:47:05;;;;;;;4.32;2.95;;;;;;;;;;10281634;28;20091;-64
2022/06/27 21:57:17;;;;;;;;;;;;;;;;;;10279357;28;20088;-64
2022/06/27 22:02:20;;;;;;;7.10;2.95;;;;;;;;;;10281167;28;19995;-62
2022/06/27 22:07:18;;;;;;;6.70;3.08;;;;;;;;;;10277357;28;20073;-62
2022/06/27 22:12:16;;;;;;;14.93;3.83;;;;;;;;;;10277181;28;20064;-63
2022/06/27 22:17:15;;;;;;;10.82;3.13;;;;;;;;;;10276905;28;20498;-63
2022/06/27 22:22:14;;;;;;;6.30;3.53;;;;;;;;;;10276771;28;20080;-63
2022/06/27 22:27:13;;;;;;;4.72;3.35;;;;;;;;;;10277256;28;20088;-62
2022/06/27 22:32:11;;;;;;;7.35;3.30;;;;;;;;;;10276001;28;20083;-63
2022/06/27 22:37:10;;;;;;;9.73;3.75;;;;;;;;;;10275726;28;20088;-63
2022/06/27 22:42:10;;;;;;;9.20;3.67;;;;;;;;;;10275366;28;20076;-63
2022/06/27 22:47:08;;;;;;;6.03;4.50;;;;;;;;;;10279617;28;20517;-63
2022/06/27 22:52:08;;;;;;;7.65;4.15;;;;;;;;;;10279260;28;20099;-63
2022/06/27 22:57:08;;;;;;;13.55;4.22;;;;;;;;;;10280150;28;20041;-63
2022/06/27 23:02:08;;;;;;;7.65;3.83;;;;;;;;;;10276526;28;20045;-63
2022/06/27 23:07:06;;;;;;;12.85;4.22;;;;;;;;;;10282742;28;20075;-63
2022/06/27 23:12:05;;;;;;;5.65;3.60;;;;;;;;;;10276097;28;20049;-63
2022/06/27 23:17:04;;;;;;;9.27;3.80;;;;;;;;;;10273907;28;20041;-64
2022/06/27 23:22:04;;;;;;;8.73;5.32;;;;;;;;;;10273596;28;20087;-64
2022/06/27 23:27:02;;;;;;;8.15;3.70;;;;;;;;;;10277280;28;20095;-64
2022/06/27 23:32:01;;;;;;;12.45;4.00;;;;;;;;;;10276362;28;20060;-63
2022/06/27 23:36:59;;;;;;;9.98;4.07;;;;;;;;;;10275050;28;20044;-64
2022/06/27 23:41:59;;;;;;;4.97;4.47;;;;;;;;;;10280873;28;20041;-64
2022/06/27 23:46:57;;;;;;;7.38;4.40;;;;;;;;;;10283684;28;20107;-64
2022/06/27 23:51:57;;;;;;;5.57;4.40;;;;;;;;;;10283606;28;20469;-64
2022/06/27 23:56:55;;;;;;;6.05;4.80;;;;;;;;;;10283804;28;20370;-64
